Time;durP1;ratioP1;P1;durP2;ratioP2;P2;SDS_P1;SDS_P2;PMS_P1;PMS_P2;Temp;Humidity;BMP_temperature;BMP_pressure;BME280_temperature;BME280_humidity;BME280_pressure;Samples;Min_cycle;Max_cycle;Signal;HPM_P1;HPM_P2
2021/04/06 00:00:21;;;;;;;0.03;0.03;;;16.70;52.90;;;;;;4214410;28;20058;-43
2021/04/06 00:02:48;;;;;;;0.00;0.00;;;16.60;52.90;;;;;;4214601;28;20052;-43
2021/04/06 00:05:11;;;;;;;0.00;0.00;;;16.50;53.10;;;;;;4214964;28;20498;-42
2021/04/06 00:07:33;;;;;;;1.55;0.85;;;16.40;53.40;;;;;;4213747;28;20059;-43
2021/04/06 00:10:00;;;;;;;0.00;0.00;;;16.20;53.70;;;;;;4214205;28;20117;-45
2021/04/06 00:12:21;;;;;;;0.00;0.00;;;16.10;54.90;;;;;;4198059;28;20052;-46
2021/04/06 00:14:44;;;;;;;0.00;0.00;;;15.90;54.60;;;;;;4204322;28;20051;-43
2021/04/06 00:17:09;;;;;;;0.00;0.00;;;15.90;54.90;;;;;;4214387;28;20059;-44
2021/04/06 00:19:33;;;;;;;0.00;0.00;;;15.90;54.80;;;;;;4214192;28;20063;-44
2021/04/06 00:21:58;;;;;;;0.00;0.00;;;15.90;54.30;;;;;;4214495;28;20493;-44
2021/04/06 00:24:22;;;;;;;0.00;0.00;;;15.70;53.80;;;;;;4214542;28;20059;-47
2021/04/06 00:26:47;;;;;;;0.00;0.00;;;15.60;54.20;;;;;;4214289;28;20052;-46
2021/04/06 00:29:09;;;;;;;0.00;0.00;;;15.40;54.40;;;;;;4211886;28;20077;-48
2021/04/06 00:31:31;;;;;;;;;;;15.30;54.80;;;;;;4213957;28;20060;-49
2021/04/06 00:33:56;;;;;;;0.00;0.00;;;15.30;54.90;;;;;;4214471;28;19931;-46
2021/04/06 00:36:25;;;;;;;0.00;0.00;;;15.40;54.60;;;;;;4213109;28;20047;-46
2021/04/06 00:38:49;;;;;;;0.10;0.10;;;15.60;55.20;;;;;;4207367;28;20426;-46
2021/04/06 00:41:14;;;;;;;0.00;0.00;;;15.80;54.20;;;;;;4213808;28;20058;-46
2021/04/06 00:43:36;;;;;;;0.00;0.00;;;16.00;53.90;;;;;;4212892;28;20130;-44
2021/04/06 00:46:00;;;;;;;0.00;0.00;;;16.10;53.70;;;;;;4213944;28;20058;-45
2021/04/06 00:48:22;;;;;;;0.03;0.03;;;16.10;53.60;;;;;;4213374;28;20044;-43
2021/04/06 00:51:05;;;;;;;0.00;0.00;;;16.10;53.60;;;;;;4214042;28;20048;-52
2021/04/06 00:54:00;;;;;;;0.00;0.00;;;16.30;53.40;;;;;;4213038;28;20048;-47
2021/04/06 00:56:23;;;;;;;0.00;0.00;;;16.50;53.00;;;;;;4213765;28;20578;-45
2021/04/06 00:58:44;;;;;;;4.22;0.85;;;16.50;53.00;;;;;;4212663;28;20080;-46
2021/04/06 01:01:10;;;;;;;0.00;0.00;;;16.50;53.90;;;;;;4213817;28;20135;-43
2021/04/06 01:03:34;;;;;;;0.00;0.00;;;16.40;53.40;;;;;;4213799;28;20130;-43
2021/04/06 01:06:08;;;;;;;;;;;16.30;53.80;;;;;;4213979;28;20439;-43
2021/04/06 01:08:32;;;;;;;0.10;0.10;;;16.10;54.10;;;;;;4213028;28;19977;-43
2021/04/06 01:10:53;;;;;;;0.00;0.00;;;16.20;54.20;;;;;;4213600;28;20521;-43
2021/04/06 01:13:15;;;;;;;0.00;0.00;;;16.30;54.10;;;;;;4213698;28;20570;-44
2021/04/06 01:15:36;;;;;;;0.00;0.00;;;16.40;53.80;;;;;;4213068;28;20106;-43
2021/04/06 01:17:57;;;;;;;0.00;0.00;;;16.40;53.70;;;;;;4213271;28;20063;-43
2021/04/06 01:20:21;;;;;;;0.00;0.00;;;16.50;53.60;;;;;;4213371;28;20068;-43
2021/04/06 01:22:44;;;;;;;0.00;0.00;;;16.50;53.50;;;;;;4213557;28;20120;-42
2021/04/06 01:25:07;;;;;;;0.00;0.00;;;16.40;53.60;;;;;;4213350;28;20105;-43
2021/04/06 01:27:28;;;;;;;0.00;0.00;;;16.20;53.60;;;;;;4198433;28;20074;-43
2021/04/06 01:29:49;;;;;;;0.00;0.00;;;16.10;53.80;;;;;;4213061;28;20498;-42
2021/04/06 01:32:10;;;;;;;0.00;0.00;;;16.10;54.00;;;;;;4213117;28;20059;-43
2021/04/06 01:34:31;;;;;;;0.13;0.13;;;16.10;54.20;;;;;;4213361;28;20052;-43
2021/04/06 01:36:54;;;;;;;0.10;0.10;;;16.10;54.30;;;;;;4212873;28;20048;-43
2021/04/06 01:39:16;;;;;;;0.00;0.00;;;16.20;54.00;;;;;;4213066;28;20059;-43
2021/04/06 01:41:38;;;;;;;0.00;0.00;;;16.50;53.60;;;;;;4213116;28;20106;-43
2021/04/06 01:44:00;;;;;;;0.45;0.45;;;16.60;53.10;;;;;;4212629;28;20051;-42
2021/04/06 01:46:30;;;;;;;;;;;16.70;53.00;;;;;;4213356;28;20052;-44
2021/04/06 01:48:54;;;;;;;0.00;0.00;;;16.60;53.00;;;;;;4213146;28;19935;-42
2021/04/06 01:51:20;;;;;;;0.00;0.00;;;16.60;53.40;;;;;;4213060;28;20075;-43
2021/04/06 01:53:41;;;;;;;0.00;0.00;;;16.40;53.60;;;;;;4212960;28;20079;-43
2021/04/06 01:56:05;;;;;;;0.00;0.00;;;16.40;53.70;;;;;;4204999;28;20067;-47
2021/04/06 01:58:30;;;;;;;0.20;0.20;;;16.30;53.80;;;;;;4212921;28;20055;-45
2021/04/06 02:01:06;;;;;;;0.00;0.00;;;16.20;54.10;;;;;;4196112;28;20495;-44
2021/04/06 02:03:31;;;;;;;0.00;0.00;;;16.10;54.40;;;;;;4197589;28;20070;-42
2021/04/06 02:05:53;;;;;;;0.00;0.00;;;16.10;54.60;;;;;;4212626;28;20044;-43
2021/04/06 02:08:19;;;;;;;0.00;0.00;;;16.00;54.70;;;;;;4212902;28;20065;-42
2021/04/06 02:10:40;;;;;;;0.00;0.00;;;15.90;54.80;;;;;;4211661;28;20052;-44
2021/04/06 02:13:07;;;;;;;0.00;0.00;;;15.80;55.00;;;;;;4196021;28;20052;-43
2021/04/06 02:15:29;;;;;;;0.00;0.00;;;15.80;55.10;;;;;;4202215;28;20074;-44
2021/04/06 02:17:52;;;;;;;1.88;0.80;;;15.80;55.00;;;;;;4212540;28;20052;-43
2021/04/06 02:20:22;;;;;;;0.00;0.00;;;15.80;55.30;;;;;;4212439;28;20429;-43
2021/04/06 02:22:54;;;;;;;0.00;0.00;;;15.70;55.40;;;;;;4212356;28;20055;-43
2021/04/06 02:25:17;;;;;;;0.00;0.00;;;15.60;55.70;;;;;;4212298;28;20048;-43
2021/04/06 02:27:38;;;;;;;0.00;0.00;;;15.60;55.80;;;;;;4212348;28;20052;-43
2021/04/06 02:30:00;;;;;;;3.20;2.30;;;15.80;55.50;;;;;;4212243;28;20076;-44
2021/04/06 02:32:24;;;;;;;0.00;0.00;;;16.00;55.00;;;;;;4212417;28;20055;-42
2021/04/06 02:34:47;;;;;;;0.32;0.32;;;16.20;54.50;;;;;;4212384;28;20134;-42
2021/04/06 02:37:13;;;;;;;0.00;0.00;;;16.30;54.10;;;;;;4195741;28;20068;-43
2021/04/06 02:39:38;;;;;;;0.00;0.00;;;16.40;53.70;;;;;;4205447;28;20411;-43
2021/04/06 02:42:16;;;;;;;0.00;0.00;;;16.40;53.70;;;;;;4212343;28;20051;-43
2021/04/06 02:44:37;;;;;;;0.13;0.13;;;16.40;53.80;;;;;;4211872;28;20481;-43
2021/04/06 02:46:58;;;;;;;;;;;16.40;53.60;;;;;;4211150;28;20131;-43
2021/04/06 02:49:20;;;;;;;0.00;0.00;;;16.30;53.50;;;;;;4212220;28;19927;-43
2021/04/06 02:51:56;;;;;;;0.30;0.30;;;16.30;53.60;;;;;;4212383;28;20052;-43
2021/04/06 02:54:17;;;;;;;0.00;0.00;;;16.20;53.90;;;;;;4212020;28;20058;-44
2021/04/06 02:56:39;;;;;;;0.00;0.00;;;16.10;54.10;;;;;;4215278;28;20414;-43
2021/04/06 02:59:13;;;;;;;0.00;0.00;;;16.00;54.50;;;;;;4215352;28;20047;-44
2021/04/06 03:01:34;;;;;;;0.10;0.10;;;16.00;54.60;;;;;;4215136;28;20083;-43
2021/04/06 03:03:55;;;;;;;0.00;0.00;;;16.10;54.30;;;;;;4215631;28;20406;-43
2021/04/06 03:06:17;;;;;;;0.00;0.00;;;16.20;53.90;;;;;;4215368;28;20349;-42
2021/04/06 03:08:39;;;;;;;0.55;0.55;;;16.30;53.70;;;;;;4215329;28;20055;-43
2021/04/06 03:11:01;;;;;;;0.00;0.00;;;16.30;54.40;;;;;;4215579;28;20052;-43
2021/04/06 03:13:24;;;;;;;0.00;0.00;;;16.20;53.80;;;;;;4215184;28;20051;-43
2021/04/06 03:15:46;;;;;;;6.93;0.85;;;16.20;53.90;;;;;;4215413;28;20062;-43
2021/04/06 03:18:07;;;;;;;0.00;0.00;;;16.20;53.90;;;;;;4215441;28;20060;-43
2021/04/06 03:20:28;;;;;;;0.10;0.10;;;16.20;53.90;;;;;;4214598;28;20079;-48
2021/04/06 03:22:51;;;;;;;0.00;0.00;;;16.20;53.80;;;;;;4214270;28;20055;-48
2021/04/06 03:25:15;;;;;;;0.00;0.00;;;16.10;54.80;;;;;;4215146;28;20106;-43
2021/04/06 03:27:41;;;;;;;0.20;0.20;;;16.10;54.30;;;;;;4215149;28;20059;-43
2021/04/06 03:30:04;;;;;;;0.00;0.00;;;16.10;54.10;;;;;;4214884;28;20060;-44
2021/04/06 03:32:25;;;;;;;0.00;0.00;;;16.10;54.10;;;;;;4215227;28;20234;-42
2021/04/06 03:34:47;;;;;;;0.00;0.00;;;16.10;54.20;;;;;;4214964;28;20054;-43
2021/04/06 03:37:09;;;;;;;0.00;0.00;;;16.00;54.30;;;;;;4214044;28;20567;-45
2021/04/06 03:39:33;;;;;;;0.00;0.00;;;16.10;54.40;;;;;;4214817;28;20051;-48
2021/04/06 03:41:56;;;;;;;0.00;0.00;;;16.20;54.10;;;;;;4215135;28;20052;-43
2021/04/06 03:44:17;;;;;;;0.00;0.00;;;16.40;53.80;;;;;;4214854;28;20051;-43
2021/04/06 03:46:39;;;;;;;1.92;1.20;;;16.40;53.70;;;;;;4215057;28;20402;-42
2021/04/06 03:49:12;;;;;;;0.00;0.00;;;16.40;54.40;;;;;;4214734;28;20055;-43
2021/04/06 03:51:36;;;;;;;0.00;0.00;;;16.50;53.50;;;;;;4214956;28;20137;-42
2021/04/06 03:53:57;;;;;;;0.80;0.80;;;16.50;53.60;;;;;;4214679;28;20066;-43
2021/04/06 03:56:29;;;;;;;0.20;0.20;;;16.40;53.60;;;;;;4213461;28;20055;-43
2021/04/06 03:58:56;;;;;;;0.00;0.00;;;16.30;53.80;;;;;;4214310;28;20051;-44
2021/04/06 04:01:16;;;;;;;0.00;0.00;;;16.30;54.00;;;;;;4214749;28;20048;-42
2021/04/06 04:03:38;;;;;;;0.00;0.00;;;16.40;53.90;;;;;;4214702;28;20518;-42
2021/04/06 04:05:59;;;;;;;1.45;1.35;;;16.50;53.60;;;;;;4214506;28;20109;-42
2021/04/06 04:08:20;;;;;;;0.00;0.00;;;16.60;53.40;;;;;;4214231;28;20418;-43
2021/04/06 04:10:41;;;;;;;0.00;0.00;;;16.60;53.20;;;;;;4214305;28;20130;-43
2021/04/06 04:13:03;;;;;;;0.00;0.00;;;16.60;53.30;;;;;;4214138;28;20052;-43
2021/04/06 04:15:24;;;;;;;0.50;0.50;;;16.60;53.50;;;;;;4214438;28;20157;-43
2021/04/06 04:17:49;;;;;;;0.10;0.10;;;16.70;53.30;;;;;;4214494;28;20115;-45
2021/04/06 04:20:11;;;;;;;0.00;0.00;;;16.80;52.80;;;;;;4197348;28;20108;-43
2021/04/06 04:22:33;;;;;;;0.00;0.00;;;16.90;52.50;;;;;;4204930;28;20165;-43
2021/04/06 04:24:53;;;;;;;0.00;0.00;;;17.00;52.40;;;;;;4214374;28;20131;-43
2021/04/06 04:27:14;;;;;;;0.00;0.00;;;16.90;52.50;;;;;;4214294;28;20136;-43
2021/04/06 04:29:36;;;;;;;0.00;0.00;;;16.90;52.50;;;;;;4213734;28;20055;-43
2021/04/06 04:31:57;;;;;;;0.00;0.00;;;17.00;52.50;;;;;;4214061;28;20058;-43
2021/04/06 04:34:20;;;;;;;0.00;0.00;;;16.90;52.50;;;;;;4214255;28;20062;-45
2021/04/06 04:36:41;;;;;;;0.10;0.10;;;16.80;52.80;;;;;;4214234;28;20052;-43
2021/04/06 04:39:02;;;;;;;0.00;0.00;;;16.70;53.00;;;;;;4214048;28;20056;-43
2021/04/06 04:41:24;;;;;;;0.03;0.03;;;16.50;53.30;;;;;;4214137;28;20048;-43
2021/04/06 04:43:45;;;;;;;0.00;0.00;;;16.40;53.60;;;;;;4213197;28;20422;-44
2021/04/06 04:46:07;;;;;;;0.00;0.00;;;16.30;53.90;;;;;;4213037;28;20054;-44
2021/04/06 04:48:28;;;;;;;0.00;0.00;;;16.30;53.90;;;;;;4213721;28;20056;-43
2021/04/06 04:50:49;;;;;;;0.00;0.00;;;16.40;53.60;;;;;;4214068;28;20499;-43
2021/04/06 04:53:10;;;;;;;0.08;0.08;;;16.40;53.00;;;;;;4213718;28;20168;-43
2021/04/06 04:55:31;;;;;;;0.00;0.00;;;16.20;52.90;;;;;;4213947;28;20126;-45
2021/04/06 04:57:51;;;;;;;0.00;0.00;;;16.10;53.00;;;;;;4213811;28;20055;-44
2021/04/06 05:00:15;;;;;;;0.00;0.00;;;16.10;53.10;;;;;;4200296;28;20320;-43
2021/04/06 05:02:37;;;;;;;0.00;0.00;;;16.30;52.90;;;;;;4213908;28;20060;-43
2021/04/06 05:04:58;;;;;;;0.00;0.00;;;16.50;52.50;;;;;;4213773;28;20052;-43
2021/04/06 05:07:19;;;;;;;0.00;0.00;;;16.60;52.30;;;;;;4213646;28;20058;-43
2021/04/06 05:09:41;;;;;;;1.33;1.25;;;16.60;52.20;;;;;;4211342;28;20080;-44
2021/04/06 05:12:02;;;;;;;0.00;0.00;;;16.50;52.50;;;;;;4213719;28;20060;-43
2021/04/06 05:14:23;;;;;;;0.00;0.00;;;16.50;52.60;;;;;;4213574;28;20461;-44
2021/04/06 05:16:44;;;;;;;0.00;0.00;;;16.50;52.60;;;;;;4213666;28;20139;-44
2021/04/06 05:19:06;;;;;;;0.00;0.00;;;16.50;52.80;;;;;;4212656;28;20070;-46
2021/04/06 05:21:27;;;;;;;0.17;0.17;;;16.40;53.00;;;;;;4213414;28;20157;-48
2021/04/06 05:23:48;;;;;;;0.00;0.00;;;16.30;53.40;;;;;;4213529;28;20497;-43
2021/04/06 05:26:12;;;;;;;0.00;0.00;;;16.20;53.80;;;;;;4213472;28;20125;-44
2021/04/06 05:28:33;;;;;;;0.00;0.00;;;16.10;54.30;;;;;;4212814;28;20048;-43
2021/04/06 05:30:53;;;;;;;0.40;0.40;;;16.00;54.60;;;;;;4213338;28;20056;-44
2021/04/06 05:33:14;;;;;;;0.00;0.00;;;15.90;55.00;;;;;;4213313;28;20047;-44
2021/04/06 05:35:36;;;;;;;0.00;0.00;;;15.80;55.30;;;;;;4212798;28;20544;-43
2021/04/06 05:37:58;;;;;;;0.00;0.00;;;15.80;55.20;;;;;;4207285;28;20048;-44
2021/04/06 05:40:19;;;;;;;0.82;0.82;;;15.90;54.90;;;;;;4213179;28;20063;-43
2021/04/06 05:42:41;;;;;;;0.00;0.00;;;16.00;54.70;;;;;;4213303;28;20055;-45
2021/04/06 05:45:04;;;;;;;0.17;0.17;;;16.00;54.40;;;;;;4200115;28;20159;-45
2021/04/06 05:47:30;;;;;;;0.43;0.40;;;15.90;54.30;;;;;;4213697;28;20052;-46
2021/04/06 05:49:53;;;;;;;0.00;0.00;;;16.00;54.40;;;;;;4212843;28;20048;-43
2021/04/06 05:52:16;;;;;;;0.28;0.28;;;16.10;53.90;;;;;;4212845;28;20052;-43
2021/04/06 05:54:37;;;;;;;0.00;0.00;;;16.30;53.20;;;;;;4212613;28;20080;-43
2021/04/06 05:56:58;;;;;;;0.10;0.10;;;16.50;52.60;;;;;;4212054;28;20141;-43
2021/04/06 05:59:19;;;;;;;0.30;0.30;;;16.50;53.10;;;;;;4212515;28;20161;-43
2021/04/06 06:01:43;;;;;;;0.10;0.10;;;16.50;52.40;;;;;;4212690;28;20136;-43
2021/04/06 06:04:06;;;;;;;0.00;0.00;;;16.50;52.30;;;;;;4212959;28;20072;-43
2021/04/06 06:06:27;;;;;;;0.55;0.55;;;16.50;52.20;;;;;;4212878;28;20043;-43
2021/04/06 06:08:52;;;;;;;0.00;0.00;;;16.60;51.80;;;;;;4212546;28;20383;-43
2021/04/06 06:11:13;;;;;;;0.00;0.00;;;16.70;51.80;;;;;;4211812;28;20156;-44
2021/04/06 06:13:36;;;;;;;0.00;0.00;;;16.70;51.50;;;;;;4211724;28;20048;-44
2021/04/06 06:16:15;;;;;;;0.00;0.00;;;16.60;51.20;;;;;;4212718;28;20101;-44
2021/04/06 06:18:58;;;;;;;0.00;0.00;;;16.40;51.40;;;;;;4212294;28;20044;-43
2021/04/06 06:21:19;;;;;;;0.22;0.22;;;16.20;51.80;;;;;;4212544;28;20063;-43
2021/04/06 06:23:40;;;;;;;;;;;16.10;52.10;;;;;;4213173;28;20048;-43
2021/04/06 06:26:19;;;;;;;0.15;0.15;;;16.10;52.20;;;;;;4212850;28;19966;-43
2021/04/06 06:28:41;;;;;;;0.00;0.00;;;16.20;52.20;;;;;;4212242;28;20130;-44
2021/04/06 06:31:02;;;;;;;0.00;0.00;;;16.20;52.00;;;;;;4212058;28;20071;-43
2021/04/06 06:33:25;;;;;;;0.35;0.35;;;16.20;52.00;;;;;;4212402;28;20131;-43
2021/04/06 06:35:48;;;;;;;0.00;0.00;;;16.20;52.00;;;;;;4212158;28;20112;-43
2021/04/06 06:38:20;;;;;;;0.00;0.00;;;16.10;52.80;;;;;;4212098;28;20062;-43
2021/04/06 06:40:42;;;;;;;0.43;0.43;;;16.20;52.80;;;;;;4212271;28;20052;-43
2021/04/06 06:43:04;;;;;;;0.00;0.00;;;16.40;51.80;;;;;;4212616;28;20052;-42
2021/04/06 06:45:26;;;;;;;0.00;0.00;;;16.50;51.30;;;;;;4212356;28;20070;-44
2021/04/06 06:47:54;;;;;;;0.00;0.00;;;16.60;51.00;;;;;;4212334;28;20055;-45
2021/04/06 06:50:16;;;;;;;0.00;0.00;;;16.60;51.60;;;;;;4195606;28;20057;-43
2021/04/06 06:52:38;;;;;;;0.00;0.00;;;16.60;50.80;;;;;;4195655;28;20122;-43
2021/04/06 06:55:16;;;;;;;0.00;0.00;;;16.60;50.90;;;;;;4195562;28;20044;-44
2021/04/06 06:57:37;;;;;;;0.00;0.00;;;16.60;50.90;;;;;;4196030;28;20119;-45
2021/04/06 07:00:16;;;;;;;0.00;0.00;;;16.50;50.80;;;;;;4195646;28;20132;-47
2021/04/06 07:02:37;;;;;;;0.00;0.00;;;16.40;50.90;;;;;;4195569;28;20055;-50
2021/04/06 07:05:23;;;;;;;0.00;0.00;;;16.20;51.00;;;;;;4195478;28;20071;-49
2021/04/06 07:07:53;;;;;;;0.20;0.20;;;16.10;51.00;;;;;;4196546;28;20509;-43
2021/04/06 07:10:14;;;;;;;3.55;1.42;;;16.10;51.00;;;;;;4212307;28;20048;-43
2021/04/06 07:12:36;;;;;;;0.00;0.00;;;16.00;50.90;;;;;;4212184;28;20097;-46
2021/04/06 07:15:03;;;;;;;0.00;0.00;;;15.90;51.00;;;;;;4212314;28;20494;-43
2021/04/06 07:17:25;;;;;;;0.00;0.00;;;15.80;51.10;;;;;;4211897;28;20048;-44
2021/04/06 07:19:46;;;;;;;0.00;0.00;;;15.70;51.20;;;;;;4212154;28;20084;-44
2021/04/06 07:22:14;;;;;;;0.10;0.10;;;15.50;51.40;;;;;;4211512;28;20105;-44
2021/04/06 07:24:37;;;;;;;0.00;0.00;;;15.40;51.50;;;;;;4212032;28;20118;-44
2021/04/06 07:27:01;;;;;;;0.00;0.00;;;15.40;51.80;;;;;;4212125;28;20462;-44
2021/04/06 07:29:26;;;;;;;0.00;0.00;;;15.30;52.10;;;;;;4212132;28;20056;-44
2021/04/06 07:31:49;;;;;;;1.35;1.27;;;15.20;52.30;;;;;;4211961;28;20097;-45
2021/04/06 07:34:12;;;;;;;0.00;0.00;;;15.10;52.40;;;;;;4195354;28;20052;-43
2021/04/06 07:36:34;;;;;;;0.10;0.10;;;15.20;52.50;;;;;;4195364;28;20063;-43
2021/04/06 07:39:00;;;;;;;0.00;0.00;;;15.40;52.30;;;;;;4210914;28;20063;-44
2021/04/06 07:41:22;;;;;;;0.00;0.00;;;15.60;51.90;;;;;;4212989;28;20051;-44
2021/04/06 07:43:43;;;;;;;0.20;0.20;;;15.70;51.90;;;;;;4214574;28;20433;-42
2021/04/06 07:46:04;;;;;;;0.15;0.15;;;15.70;52.60;;;;;;4215035;28;20134;-43
2021/04/06 07:48:45;;;;;;;1.38;1.27;;;15.60;51.80;;;;;;4215002;28;20052;-46
2021/04/06 07:51:27;;;;;;;2.00;1.45;;;15.60;51.90;;;;;;4215033;28;20055;-43
2021/04/06 07:54:00;;;;;;;0.00;0.00;;;15.50;52.10;;;;;;4215047;28;20059;-43
2021/04/06 07:56:48;;;;;;;0.00;0.00;;;15.40;52.30;;;;;;4214593;28;20059;-43
2021/04/06 07:59:10;;;;;;;0.00;0.00;;;15.40;52.50;;;;;;4213416;28;20059;-43
2021/04/06 08:01:32;;;;;;;0.10;0.10;;;15.20;52.50;;;;;;4214839;28;20139;-46
2021/04/06 08:04:05;;;;;;;0.00;0.00;;;15.20;52.70;;;;;;4214926;28;20093;-45
2021/04/06 08:06:28;;;;;;;0.00;0.00;;;15.10;52.70;;;;;;4197822;28;20044;-49
2021/04/06 08:08:49;;;;;;;0.00;0.00;;;15.10;52.80;;;;;;4197875;28;20593;-45
2021/04/06 08:11:10;;;;;;;0.05;0.05;;;15.00;53.00;;;;;;4197948;28;20076;-45
2021/04/06 08:13:34;;;;;;;0.00;0.00;;;15.00;53.10;;;;;;4197915;28;20392;-44
2021/04/06 08:16:11;;;;;;;1.50;0.95;;;14.90;53.20;;;;;;4210716;28;20137;-44
2021/04/06 08:18:48;;;;;;;0.00;0.00;;;14.90;53.30;;;;;;4214414;28;20135;-44
2021/04/06 08:21:11;;;;;;;0.00;0.00;;;14.80;53.30;;;;;;4214525;28;20060;-43
2021/04/06 08:23:43;;;;;;;0.00;0.00;;;14.80;53.40;;;;;;4214543;28;20080;-44
2021/04/06 08:26:04;;;;;;;0.00;0.00;;;14.70;53.40;;;;;;4214001;28;20105;-44
2021/04/06 08:28:38;;;;;;;0.00;0.00;;;14.70;54.30;;;;;;4214395;28;20052;-44
2021/04/06 08:31:23;;;;;;;0.00;0.00;;;14.70;53.70;;;;;;4214446;28;20144;-45
2021/04/06 08:33:44;;;;;;;0.00;0.00;;;14.60;53.60;;;;;;4214098;28;20056;-44
2021/04/06 08:36:05;;;;;;;1.27;1.25;;;14.50;53.70;;;;;;4214108;28;20051;-44
2021/04/06 08:38:40;;;;;;;;;;;14.50;53.80;;;;;;4214087;28;20083;-44
2021/04/06 08:41:05;;;;;;;0.00;0.00;;;14.50;54.00;;;;;;4204918;28;19931;-46
2021/04/06 08:43:28;;;;;;;0.00;0.00;;;14.50;54.10;;;;;;4213684;28;20056;-46
2021/04/06 08:45:53;;;;;;;0.00;0.00;;;14.40;54.10;;;;;;4213879;28;20070;-48
2021/04/06 08:48:48;;;;;;;0.25;0.25;;;14.40;54.10;;;;;;4213958;28;20085;-45
2021/04/06 08:51:17;;;;;;;0.00;0.00;;;14.30;54.20;;;;;;4214080;28;20048;-43
2021/04/06 08:53:39;;;;;;;0.00;0.00;;;14.30;54.50;;;;;;4212525;28;20418;-43
2021/04/06 08:56:11;;;;;;;0.00;0.00;;;14.30;54.60;;;;;;4214012;28;20628;-45
2021/04/06 08:58:32;;;;;;;0.40;0.40;;;14.30;54.70;;;;;;4214007;28;20056;-43
2021/04/06 09:01:00;;;;;;;;;;;14.30;54.70;;;;;;4197696;28;20084;-45
2021/04/06 09:03:25;;;;;;;0.90;0.90;;;14.20;54.70;;;;;;4197236;28;20309;-43
2021/04/06 09:05:46;;;;;;;0.00;0.00;;;14.30;54.60;;;;;;4197056;28;20514;-43
2021/04/06 09:08:16;;;;;;;0.00;0.00;;;14.20;54.60;;;;;;4197020;28;20416;-46
2021/04/06 09:10:39;;;;;;;0.00;0.00;;;14.30;54.60;;;;;;4197102;28;20246;-47
2021/04/06 09:13:00;;;;;;;0.10;0.10;;;14.30;54.50;;;;;;4209658;28;20052;-44
2021/04/06 09:15:23;;;;;;;0.00;0.00;;;14.20;54.60;;;;;;4213702;28;20490;-44
2021/04/06 09:17:46;;;;;;;17.05;1.45;;;14.20;54.50;;;;;;4213704;28;20059;-51
2021/04/06 09:20:11;;;;;;;0.00;0.00;;;14.20;54.70;;;;;;4213768;28;20074;-48
2021/04/06 09:22:34;;;;;;;0.15;0.15;;;14.20;54.60;;;;;;4213207;28;20120;-47
2021/04/06 09:24:55;;;;;;;0.00;0.00;;;14.20;54.60;;;;;;4196787;28;20048;-50
2021/04/06 09:27:16;;;;;;;0.00;0.00;;;14.20;54.70;;;;;;4196921;28;20066;-44
2021/04/06 09:29:40;;;;;;;0.00;0.00;;;14.20;54.70;;;;;;4196681;28;20060;-45
2021/04/06 09:32:04;;;;;;;0.00;0.00;;;14.10;54.60;;;;;;4196606;28;20105;-44
2021/04/06 09:34:27;;;;;;;0.08;0.08;;;14.00;54.70;;;;;;4211313;28;20060;-44
2021/04/06 09:36:53;;;;;;;0.00;0.00;;;14.00;54.60;;;;;;4212112;28;20067;-44
2021/04/06 09:39:15;;;;;;;1.23;1.13;;;14.00;54.90;;;;;;4212928;28;20113;-44
2021/04/06 09:41:40;;;;;;;0.30;0.30;;;14.00;54.80;;;;;;4213379;28;20506;-45
2021/04/06 09:44:01;;;;;;;0.00;0.00;;;14.00;55.00;;;;;;4213397;28;20055;-45
2021/04/06 09:46:44;;;;;;;0.00;0.00;;;14.00;55.10;;;;;;4212075;28;20105;-46
2021/04/06 09:49:06;;;;;;;0.00;0.00;;;14.00;54.80;;;;;;4212936;28;20047;-46
2021/04/06 09:51:31;;;;;;;0.00;0.00;;;13.90;54.50;;;;;;4212950;28;20490;-44
2021/04/06 09:53:54;;;;;;;0.00;0.00;;;13.90;54.30;;;;;;4213305;28;20139;-49
2021/04/06 09:56:15;;;;;;;0.10;0.10;;;14.00;54.60;;;;;;4211890;28;20074;-44
2021/04/06 09:58:36;;;;;;;0.00;0.00;;;14.00;54.60;;;;;;4212218;28;20044;-47
2021/04/06 10:00:58;;;;;;;0.00;0.00;;;13.90;54.60;;;;;;4212607;28;20712;-44
2021/04/06 10:03:24;;;;;;;1.45;0.98;;;13.90;54.30;;;;;;4198417;28;20457;-45
2021/04/06 10:05:46;;;;;;;0.00;0.00;;;13.90;54.20;;;;;;4201908;28;20653;-44
2021/04/06 10:08:34;;;;;;;1.08;0.90;;;13.80;54.50;;;;;;4206083;28;20113;-44
2021/04/06 10:11:24;;;;;;;0.00;0.00;;;13.70;54.60;;;;;;4212754;28;20059;-46
2021/04/06 10:14:10;;;;;;;0.00;0.00;;;13.70;55.00;;;;;;4212587;28;20624;-44
2021/04/06 10:17:02;;;;;;;0.00;0.00;;;13.60;55.30;;;;;;4212434;28;20130;-45
2021/04/06 10:19:58;;;;;;;0.00;0.00;;;13.70;55.10;;;;;;4199380;28;20051;-44
2021/04/06 10:22:40;;;;;;;0.00;0.00;;;13.90;54.90;;;;;;4212188;28;20070;-48
2021/04/06 10:25:35;;;;;;;0.00;0.00;;;14.00;54.40;;;;;;4211848;28;20517;-47
2021/04/06 10:28:24;;;;;;;0.00;0.00;;;14.10;54.40;;;;;;4209838;28;20065;-47
2021/04/06 10:30:50;;;;;;;0.10;0.10;;;14.10;54.30;;;;;;4212209;28;20052;-48
2021/04/06 10:33:32;;;;;;;0.00;0.00;;;14.10;54.50;;;;;;4212360;28;20505;-44
2021/04/06 10:36:19;;;;;;;2.53;1.35;;;14.20;55.00;;;;;;4212444;28;20189;-45
2021/04/06 10:39:06;;;;;;;0.20;0.20;;;14.20;55.10;;;;;;4211965;28;20116;-44
2021/04/06 10:41:53;;;;;;;0.00;0.00;;;14.20;55.30;;;;;;4211741;28;20611;-44
2021/04/06 10:44:38;;;;;;;0.00;0.00;;;14.20;55.50;;;;;;4204287;28;20130;-43
2021/04/06 10:47:03;;;;;;;0.00;0.00;;;14.20;55.40;;;;;;4212448;28;20146;-43
2021/04/06 10:49:26;;;;;;;0.00;0.00;;;14.20;55.30;;;;;;4212293;28;20059;-43
2021/04/06 10:51:53;;;;;;;0.00;0.00;;;14.30;54.90;;;;;;4212302;28;20059;-45
2021/04/06 10:54:16;;;;;;;0.75;0.75;;;14.40;53.90;;;;;;4212325;28;20056;-43
2021/04/06 10:56:43;;;;;;;0.10;0.10;;;14.40;53.70;;;;;;4211625;28;20052;-43
2021/04/06 10:59:06;;;;;;;0.00;0.00;;;14.40;53.70;;;;;;4202217;28;20052;-44
2021/04/06 11:01:36;;;;;;;0.95;0.93;;;14.40;53.70;;;;;;4210731;28;20044;-44
2021/04/06 11:04:01;;;;;;;0.00;0.00;;;14.50;53.70;;;;;;4212025;28;20043;-44
2021/04/06 11:06:30;;;;;;;0.00;0.00;;;14.40;54.10;;;;;;4212244;28;20048;-45
2021/04/06 11:08:53;;;;;;;0.00;0.00;;;14.40;54.10;;;;;;4212151;28;20052;-46
2021/04/06 11:11:17;;;;;;;0.00;0.00;;;14.40;54.20;;;;;;4211877;28;20051;-44
2021/04/06 11:13:38;;;;;;;0.17;0.17;;;14.50;55.00;;;;;;4212171;28;20059;-44
2021/04/06 11:16:00;;;;;;;0.17;0.17;;;14.50;54.30;;;;;;4212570;28;20542;-46
2021/04/06 11:18:20;;;;;;;0.00;0.00;;;14.60;54.30;;;;;;4215621;28;20112;-44
2021/04/06 11:20:42;;;;;;;0.00;0.00;;;14.60;54.30;;;;;;4213947;28;20117;-43
2021/04/06 11:23:03;;;;;;;;;;;14.60;54.20;;;;;;4215948;28;20052;-44
2021/04/06 11:25:25;;;;;;;0.10;0.10;;;14.60;54.10;;;;;;4215238;28;19920;-44
2021/04/06 11:27:46;;;;;;;0.00;0.00;;;14.60;53.90;;;;;;4215452;28;20052;-45
2021/04/06 11:30:08;;;;;;;22.15;0.65;;;14.60;53.90;;;;;;4215228;28;20055;-44
2021/04/06 11:32:32;;;;;;;0.65;0.65;;;14.50;54.00;;;;;;4215385;28;20144;-46
2021/04/06 11:34:54;;;;;;;0.00;0.00;;;14.50;53.90;;;;;;4215308;28;20052;-44
2021/04/06 11:37:15;;;;;;;0.10;0.10;;;14.50;53.70;;;;;;4215239;28;20066;-44
2021/04/06 11:39:44;;;;;;;0.00;0.00;;;14.50;54.30;;;;;;4215232;28;20333;-44
2021/04/06 11:42:07;;;;;;;0.00;0.00;;;14.60;54.40;;;;;;4215066;28;20155;-45
2021/04/06 11:44:29;;;;;;;0.00;0.00;;;14.50;54.40;;;;;;4215061;28;20076;-44
2021/04/06 11:46:52;;;;;;;;;;;14.50;54.50;;;;;;4215891;28;20376;-44
2021/04/06 11:49:15;;;;;;;0.00;0.00;;;14.50;55.00;;;;;;4213830;28;19930;-44
2021/04/06 11:51:36;;;;;;;0.00;0.00;;;14.50;55.90;;;;;;4214771;28;20484;-45
2021/04/06 11:53:57;;;;;;;0.00;0.00;;;14.60;55.30;;;;;;4214976;28;20059;-45
2021/04/06 11:56:18;;;;;;;0.00;0.00;;;14.80;54.50;;;;;;4214972;28;20056;-44
2021/04/06 11:58:40;;;;;;;0.20;0.20;;;15.00;53.90;;;;;;4214863;28;20763;-44
2021/04/06 12:01:19;;;;;;;0.52;0.52;;;15.10;53.40;;;;;;4204762;28;20055;-44
2021/04/06 12:03:40;;;;;;;0.00;0.00;;;15.20;53.20;;;;;;4214856;28;20852;-43
2021/04/06 12:06:01;;;;;;;0.10;0.10;;;15.20;53.40;;;;;;4214845;28;20056;-47
2021/04/06 12:08:23;;;;;;;0.00;0.00;;;15.20;53.30;;;;;;4214619;28;20052;-49
2021/04/06 12:10:46;;;;;;;0.15;0.15;;;15.10;53.20;;;;;;4214828;28;20379;-45
2021/04/06 12:13:07;;;;;;;0.00;0.00;;;15.10;53.20;;;;;;4214701;28;20080;-44
2021/04/06 12:15:29;;;;;;;0.00;0.00;;;15.00;52.80;;;;;;4214583;28;20060;-44
2021/04/06 12:17:50;;;;;;;0.10;0.10;;;15.10;52.90;;;;;;4214518;28;20552;-44
2021/04/06 12:20:13;;;;;;;0.00;0.00;;;15.00;52.80;;;;;;4214569;28;20095;-45
2021/04/06 12:22:34;;;;;;;0.57;0.57;;;15.10;52.60;;;;;;4214282;28;20056;-44
2021/04/06 12:24:55;;;;;;;;;;;15.00;52.50;;;;;;4214831;28;20123;-43
2021/04/06 12:27:16;;;;;;;0.00;0.00;;;15.00;52.50;;;;;;4213789;28;19928;-45
2021/04/06 12:29:38;;;;;;;0.00;0.00;;;15.10;52.20;;;;;;4214298;28;20557;-45
2021/04/06 12:32:00;;;;;;;0.10;0.10;;;15.40;51.90;;;;;;4213768;28;20542;-44
2021/04/06 12:34:20;;;;;;;0.00;0.00;;;15.50;51.50;;;;;;4213165;28;20048;-44
2021/04/06 12:36:41;;;;;;;0.00;0.00;;;15.60;51.50;;;;;;4214288;28;20051;-46
2021/04/06 12:39:23;;;;;;;0.13;0.13;;;15.60;51.50;;;;;;4214354;28;20470;-44